createdAt,value
2019-03-25T00:00:52.449Z,86.66
2019-03-25T00:03:20.712Z,86.63
2019-03-25T00:05:48.968Z,86.07
2019-03-25T00:08:17.239Z,85.75
2019-03-25T00:10:45.508Z,85.28
2019-03-25T00:13:13.777Z,84.87
2019-03-25T00:15:42.035Z,85.31
2019-03-25T00:18:10.287Z,84.94
2019-03-25T00:20:38.592Z,86.55
2019-03-25T00:23:06.861Z,88.90
2019-03-25T00:25:35.124Z,90.13
2019-03-25T00:28:03.381Z,90.65
2019-03-25T00:30:31.639Z,91.50
2019-03-25T00:32:59.896Z,92.59
2019-03-25T00:35:28.158Z,92.62
2019-03-25T00:37:56.431Z,93.27
2019-03-25T00:40:24.707Z,92.83
2019-03-25T00:42:52.966Z,93.32
2019-03-25T00:45:21.220Z,94.43
2019-03-25T00:47:49.490Z,95.45
2019-03-25T00:50:17.748Z,96.55
2019-03-25T00:52:46.003Z,98.54
2019-03-25T00:55:14.282Z,100.00
2019-03-25T00:57:42.574Z,100.00
2019-03-25T01:00:42.254Z,100.00
2019-03-25T01:03:10.523Z,100.00
2019-03-25T01:05:38.801Z,100.00
2019-03-25T01:08:07.077Z,100.00
2019-03-25T01:10:35.346Z,100.00
2019-03-25T01:13:03.619Z,100.00
2019-03-25T01:15:31.900Z,100.00
2019-03-25T01:18:00.185Z,100.00
2019-03-25T01:20:28.530Z,100.00
2019-03-25T01:22:56.905Z,100.00
2019-03-25T01:25:25.165Z,100.00
2019-03-25T01:27:53.469Z,100.00
2019-03-25T01:30:21.750Z,100.00
2019-03-25T01:32:50.032Z,100.00
2019-03-25T01:35:18.300Z,100.00
2019-03-25T01:37:46.569Z,100.00
2019-03-25T01:40:14.980Z,100.00
2019-03-25T01:42:43.248Z,100.00
2019-03-25T01:45:11.513Z,100.00
2019-03-25T01:47:39.798Z,100.00
2019-03-25T01:50:08.137Z,100.00
2019-03-25T01:52:36.416Z,100.00
2019-03-25T01:55:36.302Z,100.00
2019-03-25T01:58:04.665Z,100.00
2019-03-25T02:00:32.927Z,100.00
2019-03-25T02:03:01.218Z,100.00
2019-03-25T02:05:29.486Z,100.00
2019-03-25T02:07:57.758Z,100.00
2019-03-25T02:10:26.029Z,100.00
2019-03-25T02:12:54.301Z,100.00
2019-03-25T02:15:22.582Z,100.00
2019-03-25T02:17:50.823Z,100.00
2019-03-25T02:20:26.480Z,100.00
2019-03-25T02:22:49.120Z,100.00
2019-03-25T02:25:25.496Z,100.00
2019-03-25T02:27:47.422Z,100.00
2019-03-25T02:30:47.691Z,100.00
2019-03-25T02:33:15.979Z,100.00
2019-03-25T02:35:44.290Z,100.00
2019-03-25T02:38:12.511Z,100.00
2019-03-25T02:40:40.767Z,100.00
2019-03-25T02:43:09.038Z,100.00
2019-03-25T02:45:37.299Z,100.00
2019-03-25T02:48:05.573Z,100.00
2019-03-25T02:50:33.830Z,100.00
2019-03-25T02:53:02.089Z,100.00
2019-03-25T02:55:41.259Z,100.00
2019-03-25T02:58:00.333Z,100.00
2019-03-25T03:00:47.938Z,100.00
2019-03-25T03:03:16.204Z,100.00
2019-03-25T03:05:44.465Z,100.00
2019-03-25T03:08:12.730Z,100.00
2019-03-25T03:10:40.985Z,100.00
2019-03-25T03:13:09.282Z,100.00
2019-03-25T03:15:37.536Z,100.00
2019-03-25T03:18:05.800Z,100.00
2019-03-25T03:20:34.069Z,100.00
2019-03-25T03:23:02.339Z,100.00
2019-03-25T03:25:30.587Z,100.00
2019-03-25T03:27:58.859Z,100.00
2019-03-25T03:30:27.132Z,100.00
2019-03-25T03:32:55.439Z,100.00
2019-03-25T03:35:23.692Z,100.00
2019-03-25T03:37:51.936Z,100.00
2019-03-25T03:40:20.192Z,100.00
2019-03-25T03:42:48.535Z,100.00
2019-03-25T03:45:48.081Z,100.00
2019-03-25T03:48:16.349Z,100.00
2019-03-25T03:50:44.612Z,100.00
2019-03-25T03:53:12.896Z,100.00
2019-03-25T03:55:41.162Z,100.00
2019-03-25T03:58:41.317Z,100.00
2019-03-25T04:01:09.574Z,100.00
2019-03-25T04:03:38.852Z,100.00
2019-03-25T04:06:07.110Z,100.00
2019-03-25T04:08:35.389Z,100.00
2019-03-25T04:11:03.724Z,100.00
2019-03-25T04:13:31.993Z,100.00
2019-03-25T04:16:01.660Z,100.00
2019-03-25T04:18:30.271Z,100.00
2019-03-25T04:20:58.523Z,100.00
2019-03-25T04:23:26.799Z,100.00
2019-03-25T04:25:55.070Z,100.00
2019-03-25T04:28:23.332Z,100.00
2019-03-25T04:30:51.700Z,100.00
2019-03-25T04:33:19.949Z,100.00
2019-03-25T04:35:48.208Z,100.00
2019-03-25T04:38:16.518Z,100.00
2019-03-25T04:41:16.607Z,100.00
2019-03-25T04:43:44.905Z,100.00
2019-03-25T04:46:13.183Z,100.00
2019-03-25T04:48:41.469Z,100.00
2019-03-25T04:51:09.745Z,100.00
2019-03-25T04:53:38.864Z,100.00
2019-03-25T04:56:07.126Z,100.00
2019-03-25T04:58:35.399Z,100.00
2019-03-25T05:01:03.665Z,100.00
2019-03-25T05:03:31.934Z,100.00
2019-03-25T05:06:00.219Z,100.00
2019-03-25T05:08:28.489Z,100.00
2019-03-25T05:10:56.770Z,100.00
2019-03-25T05:13:25.046Z,100.00
2019-03-25T05:15:53.323Z,100.00
2019-03-25T05:18:21.594Z,100.00
2019-03-25T05:20:49.872Z,100.00
2019-03-25T05:23:18.131Z,100.00
2019-03-25T05:25:46.416Z,100.00
2019-03-25T05:28:14.681Z,100.00
2019-03-25T05:30:42.944Z,100.00
2019-03-25T05:33:11.231Z,100.00
2019-03-25T05:35:39.504Z,100.00
2019-03-25T05:38:07.770Z,100.00
2019-03-25T05:40:36.028Z,100.00
2019-03-25T05:43:04.321Z,100.00
2019-03-25T05:45:32.590Z,100.00
2019-03-25T05:48:00.889Z,100.00
2019-03-25T05:50:29.139Z,100.00
2019-03-25T05:52:57.408Z,100.00
2019-03-25T05:55:25.671Z,100.00
2019-03-25T05:57:53.940Z,100.00
2019-03-25T06:03:11.171Z,100.00
2019-03-25T06:05:39.419Z,100.00
2019-03-25T06:08:07.684Z,100.00
2019-03-25T06:10:35.958Z,100.00
2019-03-25T06:13:04.228Z,100.00
2019-03-25T06:15:32.482Z,100.00
2019-03-25T06:18:00.744Z,100.00
2019-03-25T06:20:29.017Z,100.00
2019-03-25T06:22:57.281Z,100.00
2019-03-25T06:25:25.545Z,100.00
2019-03-25T06:27:53.812Z,100.00
2019-03-25T06:30:22.139Z,100.00
2019-03-25T06:32:50.413Z,100.00
2019-03-25T06:35:18.662Z,100.00
2019-03-25T06:37:46.956Z,100.00
2019-03-25T06:40:15.275Z,100.00
2019-03-25T06:42:43.532Z,100.00
2019-03-25T06:48:31.639Z,100.00
2019-03-25T06:50:59.901Z,100.00
2019-03-25T06:53:28.158Z,100.00
2019-03-25T06:55:56.439Z,100.00
2019-03-25T06:58:24.697Z,100.00
2019-03-25T07:00:52.950Z,100.00
2019-03-25T07:03:21.226Z,100.00
2019-03-25T07:05:49.551Z,100.00
2019-03-25T07:08:37.181Z,100.00
2019-03-25T07:11:05.450Z,100.00
2019-03-25T07:14:05.366Z,100.00
2019-03-25T07:16:33.648Z,100.00
2019-03-25T07:19:01.894Z,100.00
2019-03-25T07:21:30.166Z,100.00
2019-03-25T07:23:58.446Z,100.00
2019-03-25T07:26:26.748Z,100.00
2019-03-25T07:28:55.007Z,100.00
2019-03-25T07:31:23.286Z,100.00
2019-03-25T07:33:51.550Z,100.00
2019-03-25T07:36:19.807Z,100.00
2019-03-25T07:38:48.076Z,100.00
2019-03-25T07:41:27.545Z,100.00
2019-03-25T07:43:55.810Z,100.00
2019-03-25T07:46:24.078Z,100.00
2019-03-25T07:48:52.368Z,100.00
2019-03-25T07:51:20.646Z,100.00
2019-03-25T07:53:50.971Z,100.00
2019-03-25T07:56:18.925Z,100.00
2019-03-25T07:58:47.233Z,100.00
2019-03-25T08:01:15.468Z,100.00
2019-03-25T08:03:43.742Z,100.00
2019-03-25T08:09:10.135Z,100.00
2019-03-25T08:11:38.403Z,100.00
2019-03-25T08:14:06.678Z,100.00
2019-03-25T08:16:34.929Z,100.00
2019-03-25T08:19:03.197Z,100.00
2019-03-25T08:21:31.454Z,100.00
2019-03-25T08:23:59.721Z,100.00
2019-03-25T08:26:27.972Z,100.00
2019-03-25T08:28:56.256Z,100.00
2019-03-25T08:31:24.521Z,100.00
2019-03-25T08:33:52.801Z,100.00
2019-03-25T08:36:21.061Z,100.00
2019-03-25T08:38:49.347Z,100.00
2019-03-25T08:41:17.602Z,100.00
2019-03-25T08:43:45.876Z,100.00
2019-03-25T08:46:14.152Z,100.00
2019-03-25T08:48:42.422Z,100.00
2019-03-25T08:54:08.735Z,100.00
2019-03-25T08:56:37.017Z,100.00
2019-03-25T08:59:05.291Z,100.00
2019-03-25T09:01:33.558Z,100.00
2019-03-25T09:04:01.837Z,100.00
2019-03-25T09:06:30.139Z,100.00
2019-03-25T09:08:58.417Z,100.00
2019-03-25T09:11:26.683Z,100.00
2019-03-25T09:13:54.944Z,100.00
2019-03-25T09:16:23.211Z,100.00
2019-03-25T09:18:51.489Z,100.00
2019-03-25T09:21:19.752Z,100.00
2019-03-25T09:23:48.018Z,100.00
2019-03-25T09:26:16.281Z,100.00
2019-03-25T09:28:44.546Z,100.00
2019-03-25T09:34:32.658Z,100.00
2019-03-25T09:37:00.926Z,100.00
2019-03-25T09:39:29.213Z,100.00
2019-03-25T09:41:57.454Z,100.00
2019-03-25T09:44:25.705Z,100.00
2019-03-25T09:46:53.972Z,100.00
2019-03-25T09:49:22.241Z,100.00
2019-03-25T09:51:52.783Z,100.00
2019-03-25T09:54:20.509Z,100.00
2019-03-25T09:56:48.784Z,100.00
2019-03-25T09:59:17.064Z,100.00
2019-03-25T10:01:45.334Z,100.00
2019-03-25T10:04:13.588Z,100.00
2019-03-25T10:07:01.227Z,100.00
2019-03-25T10:09:29.495Z,100.00
2019-03-25T10:12:10.486Z,100.00
2019-03-25T10:14:38.752Z,100.00
2019-03-25T10:17:07.003Z,100.00
2019-03-25T10:19:35.269Z,100.00
2019-03-25T10:22:03.535Z,100.00
2019-03-25T10:24:31.790Z,100.00
2019-03-25T10:27:00.069Z,100.00
2019-03-25T10:29:28.841Z,100.00
2019-03-25T10:31:57.133Z,100.00
2019-03-25T10:37:26.533Z,100.00
2019-03-25T10:39:54.809Z,100.00
2019-03-25T10:42:23.072Z,100.00
2019-03-25T10:44:51.362Z,100.00
2019-03-25T10:47:19.622Z,100.00
2019-03-25T10:49:47.904Z,100.00
2019-03-25T10:52:16.170Z,100.00
2019-03-25T10:54:44.547Z,100.00
2019-03-25T10:57:14.413Z,100.00
2019-03-25T10:59:42.731Z,98.84
2019-03-25T11:02:11.006Z,96.60
2019-03-25T11:04:39.265Z,96.25
2019-03-25T11:07:07.541Z,93.75
2019-03-25T11:09:35.784Z,90.79
2019-03-25T11:12:04.060Z,89.37
2019-03-25T11:14:32.318Z,89.15
2019-03-25T11:17:00.576Z,87.75
2019-03-25T11:19:28.855Z,87.78
2019-03-25T11:21:57.129Z,86.67
2019-03-25T11:24:25.405Z,86.23
2019-03-25T11:26:53.673Z,84.90
2019-03-25T11:29:22.064Z,85.21
2019-03-25T11:31:50.319Z,83.07
2019-03-25T11:34:37.947Z,79.35
2019-03-25T11:37:06.216Z,79.35
2019-03-25T11:39:34.490Z,78.07
2019-03-25T11:42:02.754Z,78.13
2019-03-25T11:44:31.040Z,76.92
2019-03-25T11:46:59.306Z,79.78
2019-03-25T11:49:27.805Z,81.81
2019-03-25T11:51:56.084Z,85.85
2019-03-25T11:54:24.355Z,90.19
2019-03-25T11:56:52.622Z,91.59
2019-03-25T11:59:20.903Z,94.46
2019-03-25T12:01:49.186Z,94.12
2019-03-25T12:04:17.441Z,92.62
2019-03-25T12:06:45.744Z,92.66
2019-03-25T12:09:13.985Z,90.37
2019-03-25T12:11:42.242Z,89.74
2019-03-25T12:14:10.496Z,88.66
2019-03-25T12:16:38.767Z,87.71
2019-03-25T12:19:07.024Z,89.42
2019-03-25T12:21:35.285Z,88.40
2019-03-25T12:24:03.620Z,88.79
2019-03-25T12:26:31.879Z,88.56
2019-03-25T12:29:00.137Z,87.59
2019-03-25T12:31:28.401Z,88.07
2019-03-25T12:33:56.666Z,89.24
2019-03-25T12:36:24.977Z,89.63
2019-03-25T12:38:53.317Z,90.59
2019-03-25T12:41:21.580Z,87.81
2019-03-25T12:43:49.863Z,86.95
2019-03-25T12:46:18.130Z,87.05
2019-03-25T12:48:46.400Z,86.93
2019-03-25T12:51:14.650Z,86.52
2019-03-25T12:53:43.186Z,84.07
2019-03-25T12:56:11.445Z,84.26
2019-03-25T12:58:39.707Z,83.18
2019-03-25T13:01:07.975Z,82.86
2019-03-25T13:03:36.237Z,82.60
2019-03-25T13:06:04.565Z,82.90
2019-03-25T13:08:33.621Z,82.47
2019-03-25T13:11:02.850Z,83.94
2019-03-25T13:13:31.112Z,83.79
2019-03-25T13:15:59.365Z,86.59
2019-03-25T13:18:27.644Z,89.81
2019-03-25T13:20:55.892Z,92.97
2019-03-25T13:26:32.186Z,94.75
2019-03-25T13:29:53.901Z,96.86
2019-03-25T13:33:04.294Z,97.12
2019-03-25T13:35:33.042Z,93.45
2019-03-25T13:38:01.311Z,92.28
2019-03-25T13:40:29.581Z,91.79
2019-03-25T13:42:58.796Z,91.26
2019-03-25T13:45:27.068Z,86.92
2019-03-25T13:47:55.334Z,86.46
2019-03-25T13:50:23.586Z,84.16
2019-03-25T13:52:51.877Z,84.95
2019-03-25T13:55:20.160Z,85.35
2019-03-25T13:57:48.439Z,85.04
2019-03-25T14:00:48.523Z,83.43
2019-03-25T14:03:16.796Z,83.24
2019-03-25T14:05:45.060Z,84.36
2019-03-25T14:08:13.348Z,84.42
2019-03-25T14:10:41.599Z,84.31
2019-03-25T14:13:09.871Z,84.83
2019-03-25T14:15:38.144Z,86.71
2019-03-25T14:18:06.485Z,90.58
2019-03-25T14:20:34.803Z,91.93
2019-03-25T14:23:03.086Z,92.26
2019-03-25T14:25:31.376Z,91.21
2019-03-25T14:27:59.615Z,88.38
2019-03-25T14:30:27.963Z,88.85
2019-03-25T14:32:56.237Z,87.54
2019-03-25T14:35:24.518Z,84.97
2019-03-25T14:37:52.795Z,85.17
2019-03-25T14:40:21.049Z,82.90
2019-03-25T14:42:49.322Z,81.86
2019-03-25T14:45:26.138Z,82.46
2019-03-25T14:47:47.572Z,81.70
2019-03-25T14:50:15.993Z,77.48
2019-03-25T14:52:55.046Z,76.47
2019-03-25T14:55:23.331Z,76.47
2019-03-25T14:57:51.573Z,74.72
2019-03-25T15:00:25.110Z,73.83
2019-03-25T15:02:49.832Z,70.64
2019-03-25T15:05:18.109Z,69.84
2019-03-25T15:07:46.412Z,67.81
2019-03-25T15:10:53.505Z,68.96
2019-03-25T15:13:16.089Z,68.79
2019-03-25T15:15:44.375Z,68.26
2019-03-25T15:18:15.838Z,68.77
2019-03-25T15:20:42.630Z,68.71
2019-03-25T15:23:31.419Z,70.02
2019-03-25T15:26:00.081Z,69.24
2019-03-25T15:28:28.410Z,68.19
2019-03-25T15:30:56.683Z,68.62
2019-03-25T15:33:24.936Z,69.54
2019-03-25T15:35:53.183Z,70.90
2019-03-25T15:38:21.445Z,70.56
2019-03-25T15:40:49.703Z,72.26
2019-03-25T15:43:18.003Z,72.80
2019-03-25T15:45:46.267Z,73.18
2019-03-25T15:48:14.519Z,72.79
2019-03-25T15:50:42.784Z,73.27
2019-03-25T15:53:11.044Z,72.86
2019-03-25T15:55:39.307Z,73.43
2019-03-25T15:58:07.575Z,73.27
2019-03-25T16:00:46.645Z,72.23
2019-03-25T16:03:05.827Z,72.75
2019-03-25T16:05:34.322Z,73.07
2019-03-25T16:08:02.583Z,73.72
2019-03-25T16:10:31.434Z,73.52
2019-03-25T16:12:59.756Z,74.29
2019-03-25T16:15:47.368Z,74.60
2019-03-25T16:21:35.573Z,76.17
2019-03-25T16:24:03.842Z,74.93
2019-03-25T16:26:32.135Z,74.14
2019-03-25T16:29:00.413Z,73.80
2019-03-25T16:31:28.660Z,74.19
2019-03-25T16:33:56.911Z,74.99
2019-03-25T16:36:25.173Z,74.71
2019-03-25T16:38:53.458Z,75.68
2019-03-25T16:41:21.722Z,75.66
2019-03-25T16:43:49.988Z,75.17
2019-03-25T16:46:18.412Z,75.13
2019-03-25T16:48:46.662Z,75.07
2019-03-25T16:51:14.931Z,74.64
2019-03-25T16:53:43.414Z,74.37
2019-03-25T16:56:11.675Z,75.94
2019-03-25T16:58:39.955Z,76.24
2019-03-25T17:01:10.222Z,76.18
2019-03-25T17:03:38.976Z,76.21
2019-03-25T17:06:07.255Z,76.74
2019-03-25T17:08:35.522Z,76.99
2019-03-25T17:11:03.835Z,77.00
2019-03-25T17:16:12.038Z,77.00
2019-03-25T17:18:40.326Z,76.70
2019-03-25T17:21:08.597Z,77.01
2019-03-25T17:23:36.873Z,77.41
2019-03-25T17:26:05.127Z,78.21
2019-03-25T17:28:33.413Z,78.27
2019-03-25T17:31:03.118Z,78.67
2019-03-25T17:33:31.654Z,79.13
2019-03-25T17:35:59.921Z,79.86
2019-03-25T17:38:28.172Z,80.33
2019-03-25T17:40:56.444Z,81.19
2019-03-25T17:43:24.707Z,81.47
2019-03-25T17:45:52.980Z,81.68
2019-03-25T17:48:21.237Z,82.38
2019-03-25T17:50:49.515Z,83.48
2019-03-25T17:53:17.778Z,83.77
2019-03-25T17:55:46.050Z,84.09
2019-03-25T17:58:14.300Z,84.97
2019-03-25T18:03:41.546Z,86.77
2019-03-25T18:06:09.805Z,88.24
2019-03-25T18:08:38.124Z,89.19
2019-03-25T18:11:06.331Z,89.86
2019-03-25T18:13:34.603Z,90.90
2019-03-25T18:16:02.933Z,91.94
2019-03-25T18:18:31.225Z,92.72
2019-03-25T18:20:59.476Z,93.34
2019-03-25T18:23:27.748Z,94.20
2019-03-25T18:25:55.998Z,94.68
2019-03-25T18:28:24.271Z,95.25
2019-03-25T18:30:52.544Z,95.40
2019-03-25T18:33:20.811Z,95.65
2019-03-25T18:35:49.082Z,95.92
2019-03-25T18:38:17.346Z,96.08
2019-03-25T18:40:45.620Z,96.47
2019-03-25T18:43:13.879Z,96.58
2019-03-25T18:45:42.152Z,96.58
2019-03-25T18:48:10.422Z,96.51
2019-03-25T18:50:38.693Z,96.81
2019-03-25T18:53:06.950Z,96.99
2019-03-25T18:55:35.203Z,97.50
2019-03-25T18:58:03.459Z,97.85
2019-03-25T19:00:51.088Z,97.88
2019-03-25T19:03:19.387Z,98.08
2019-03-25T19:05:47.627Z,98.29
2019-03-25T19:08:15.906Z,98.35
2019-03-25T19:10:44.191Z,98.05
2019-03-25T19:13:12.445Z,97.72
2019-03-25T19:15:40.731Z,97.78
2019-03-25T19:18:08.990Z,98.09
2019-03-25T19:20:37.257Z,98.61
2019-03-25T19:23:05.497Z,99.71
2019-03-25T19:25:33.814Z,100.00
2019-03-25T19:28:02.099Z,100.00
2019-03-25T19:30:30.346Z,100.00
2019-03-25T19:32:58.669Z,100.00
2019-03-25T19:35:29.750Z,100.00
2019-03-25T19:37:56.951Z,100.00
2019-03-25T19:40:25.210Z,100.00
2019-03-25T19:42:53.489Z,100.00
2019-03-25T19:45:21.800Z,100.00
2019-03-25T19:47:50.096Z,100.00
2019-03-25T19:53:39.057Z,100.00
2019-03-25T19:56:07.356Z,100.00
2019-03-25T19:58:35.741Z,100.00
2019-03-25T20:01:03.983Z,100.00
2019-03-25T20:03:33.080Z,100.00
2019-03-25T20:06:02.256Z,100.00
2019-03-25T20:08:43.127Z,100.00
2019-03-25T20:11:11.428Z,100.00
2019-03-25T20:13:39.710Z,100.00
2019-03-25T20:16:08.011Z,100.00
2019-03-25T20:18:36.326Z,100.00
2019-03-25T20:21:04.631Z,100.00
2019-03-25T20:23:32.888Z,100.00
2019-03-25T20:26:01.231Z,100.00
2019-03-25T20:28:29.620Z,100.00
2019-03-25T20:30:57.857Z,100.00
2019-03-25T20:33:26.124Z,100.00
2019-03-25T20:35:54.412Z,100.00
2019-03-25T20:38:22.657Z,100.00
2019-03-25T20:40:50.956Z,100.00
2019-03-25T20:43:19.196Z,100.00
2019-03-25T20:45:47.762Z,100.00
2019-03-25T20:48:16.009Z,100.00
2019-03-25T20:50:44.321Z,100.00
2019-03-25T20:53:12.631Z,100.00
2019-03-25T20:55:40.903Z,100.00
2019-03-25T20:58:09.171Z,100.00
2019-03-25T21:00:56.786Z,100.00
2019-03-25T21:03:25.053Z,100.00
2019-03-25T21:05:53.309Z,100.00
2019-03-25T21:08:21.574Z,100.00
2019-03-25T21:10:49.929Z,100.00
2019-03-25T21:13:18.291Z,100.00
2019-03-25T21:15:46.618Z,100.00
2019-03-25T21:18:14.902Z,100.00
2019-03-25T21:20:43.185Z,100.00
2019-03-25T21:23:11.570Z,100.00
2019-03-25T21:25:39.862Z,100.00
2019-03-25T21:28:08.058Z,100.00
2019-03-25T21:30:47.279Z,100.00
2019-03-25T21:33:06.520Z,100.00
2019-03-25T21:35:34.786Z,100.00
2019-03-25T21:38:03.021Z,100.00
2019-03-25T21:40:31.271Z,100.00
2019-03-25T21:42:59.535Z,100.00
2019-03-25T21:45:27.830Z,100.00
2019-03-25T21:47:56.169Z,100.00
2019-03-25T21:50:24.446Z,100.00
2019-03-25T21:52:52.709Z,100.00
2019-03-25T21:55:20.986Z,100.00
2019-03-25T21:57:49.314Z,100.00
2019-03-25T22:00:17.736Z,100.00
2019-03-25T22:02:46.009Z,100.00
2019-03-25T22:05:14.288Z,100.00
2019-03-25T22:07:42.568Z,100.00
2019-03-25T22:10:43.164Z,100.00
2019-03-25T22:13:11.582Z,100.00
2019-03-25T22:15:39.859Z,100.00
2019-03-25T22:18:08.135Z,100.00
2019-03-25T22:20:36.389Z,100.00
2019-03-25T22:23:04.673Z,100.00
2019-03-25T22:25:32.949Z,100.00
2019-03-25T22:28:01.227Z,100.00
2019-03-25T22:30:29.499Z,100.00
2019-03-25T22:32:57.771Z,100.00
2019-03-25T22:35:26.023Z,100.00
2019-03-25T22:37:54.313Z,100.00
2019-03-25T22:40:22.600Z,100.00
2019-03-25T22:42:50.867Z,100.00
2019-03-25T22:45:59.167Z,100.00
2019-03-25T22:48:27.439Z,100.00
2019-03-25T22:50:55.687Z,100.00
2019-03-25T22:53:23.969Z,100.00
2019-03-25T22:55:52.256Z,100.00
2019-03-25T22:58:20.570Z,100.00
2019-03-25T23:00:48.853Z,100.00
2019-03-25T23:03:17.125Z,100.00
2019-03-25T23:05:45.468Z,100.00
2019-03-25T23:08:13.731Z,100.00
2019-03-25T23:10:41.993Z,100.00
2019-03-25T23:13:10.269Z,100.00
2019-03-25T23:15:38.536Z,100.00
2019-03-25T23:18:06.871Z,100.00
2019-03-25T23:20:35.146Z,100.00
2019-03-25T23:23:03.410Z,100.00
2019-03-25T23:25:31.683Z,100.00
2019-03-25T23:27:59.970Z,100.00
2019-03-25T23:30:28.247Z,100.00
2019-03-25T23:32:56.506Z,100.00
2019-03-25T23:35:24.786Z,100.00
2019-03-25T23:37:53.059Z,100.00
2019-03-25T23:40:21.355Z,100.00
2019-03-25T23:42:50.237Z,100.00
2019-03-25T23:45:18.527Z,100.00
2019-03-25T23:47:46.808Z,100.00
2019-03-25T23:50:15.066Z,100.00
2019-03-25T23:52:43.454Z,100.00
2019-03-25T23:55:11.710Z,100.00
2019-03-25T23:57:40.005Z,100.00
